createdAt,value
2018-03-08T00:00:51.185Z,174.60
2018-03-08T00:03:18.666Z,161.90
2018-03-08T00:05:46.222Z,157.43
2018-03-08T00:08:13.727Z,162.73
2018-03-08T00:10:41.189Z,151.17
2018-03-08T00:13:08.646Z,180.40
2018-03-08T00:15:36.238Z,176.77
2018-03-08T00:18:03.692Z,178.60
2018-03-08T00:20:31.156Z,166.63
2018-03-08T00:22:58.716Z,165.40
2018-03-08T00:25:26.176Z,160.10
2018-03-08T00:27:53.652Z,149.20
2018-03-08T00:30:21.178Z,184.33
2018-03-08T00:32:48.652Z,179.77
2018-03-08T00:35:16.118Z,182.43
2018-03-08T00:37:43.585Z,166.27
2018-03-08T00:40:11.110Z,175.83
2018-03-08T00:42:38.703Z,161.70
2018-03-08T00:45:06.175Z,183.17
2018-03-08T00:47:33.688Z,160.13
2018-03-08T00:50:01.180Z,157.40
2018-03-08T00:52:28.681Z,165.90
2018-03-08T00:54:56.155Z,154.50
2018-03-08T00:57:23.614Z,152.10
2018-03-08T00:59:51.120Z,172.07
2018-03-08T01:02:18.584Z,171.57
2018-03-08T01:04:46.058Z,162.47
2018-03-08T01:07:13.537Z,175.33
2018-03-08T01:09:41.037Z,222.13
2018-03-08T01:12:08.504Z,171.57
2018-03-08T01:14:35.988Z,166.50
2018-03-08T01:17:03.480Z,164.43
2018-03-08T01:19:30.945Z,178.30
2018-03-08T01:21:58.429Z,174.57
2018-03-08T01:24:25.923Z,175.60
2018-03-08T01:26:53.382Z,178.97
2018-03-08T01:29:20.836Z,170.17
2018-03-08T01:31:48.351Z,168.10
2018-03-08T01:34:15.811Z,176.43
2018-03-08T01:36:43.279Z,173.67
2018-03-08T01:39:10.766Z,164.27
2018-03-08T01:41:38.237Z,201.57
2018-03-08T01:44:05.701Z,175.93
2018-03-08T01:46:33.185Z,168.27
2018-03-08T01:49:00.648Z,188.23
2018-03-08T01:51:28.129Z,186.57
2018-03-08T01:53:55.650Z,189.23
2018-03-08T01:56:23.206Z,188.53
2018-03-08T01:58:50.701Z,177.83
2018-03-08T02:01:18.204Z,184.50
2018-03-08T02:03:45.688Z,193.27
2018-03-08T02:06:13.194Z,184.67
2018-03-08T02:08:40.666Z,175.70
2018-03-08T02:13:42.065Z,187.20
2018-03-08T02:16:09.561Z,180.67
2018-03-08T02:18:37.039Z,172.53
2018-03-08T02:21:04.554Z,196.00
2018-03-08T02:23:32.013Z,177.70
2018-03-08T02:25:59.569Z,189.40
2018-03-08T02:28:27.113Z,184.30
2018-03-08T02:30:54.589Z,170.30
2018-03-08T02:33:22.081Z,180.57
2018-03-08T02:35:49.575Z,167.10
2018-03-08T02:38:17.064Z,163.13
2018-03-08T02:40:44.573Z,161.57
2018-03-08T02:43:12.039Z,161.53
2018-03-08T02:45:39.531Z,177.80
2018-03-08T02:48:07.026Z,175.03
2018-03-08T02:50:34.530Z,171.80
2018-03-08T02:53:02.011Z,162.90
2018-03-08T02:55:29.509Z,158.33
2018-03-08T02:57:56.996Z,168.00
2018-03-08T03:00:24.485Z,167.70
2018-03-08T03:02:52.022Z,157.90
2018-03-08T03:05:19.497Z,154.83
2018-03-08T03:07:46.961Z,149.80
2018-03-08T03:10:14.445Z,166.60
2018-03-08T03:12:41.926Z,161.07
2018-03-08T03:15:09.396Z,157.57
2018-03-08T03:17:36.856Z,167.83
2018-03-08T03:20:04.351Z,149.97
2018-03-08T03:22:31.847Z,164.97
2018-03-08T03:24:59.353Z,163.20
2018-03-08T03:27:26.852Z,162.40
2018-03-08T03:29:54.324Z,155.13
2018-03-08T03:32:21.802Z,164.30
2018-03-08T03:34:49.306Z,156.67
2018-03-08T03:37:16.782Z,162.83
2018-03-08T03:39:44.260Z,150.47
2018-03-08T03:42:11.735Z,159.30
2018-03-08T03:44:39.222Z,149.03
2018-03-08T03:47:06.700Z,153.27
2018-03-08T03:49:34.179Z,171.67
2018-03-08T03:52:01.687Z,177.93
2018-03-08T03:54:29.152Z,159.63
2018-03-08T03:56:56.632Z,151.67
2018-03-08T03:59:24.169Z,160.10
2018-03-08T04:01:51.734Z,154.53
2018-03-08T04:04:19.259Z,163.80
2018-03-08T04:06:46.760Z,165.40
2018-03-08T04:09:14.248Z,156.50
2018-03-08T04:11:41.728Z,165.30
2018-03-08T04:14:09.219Z,150.73
2018-03-08T04:16:36.714Z,152.20
2018-03-08T04:19:04.223Z,162.27
2018-03-08T04:21:31.735Z,153.23
2018-03-08T04:23:59.243Z,161.07
2018-03-08T04:26:26.752Z,182.67
2018-03-08T04:28:54.247Z,170.40
2018-03-08T04:31:21.702Z,167.37
2018-03-08T04:33:49.189Z,176.00
2018-03-08T04:36:16.687Z,173.73
2018-03-08T04:38:44.150Z,165.57
2018-03-08T04:41:11.626Z,174.70
2018-03-08T04:43:39.122Z,165.63
2018-03-08T04:46:06.584Z,165.37
2018-03-08T04:48:34.053Z,166.90
2018-03-08T04:51:01.571Z,157.50
2018-03-08T04:53:29.130Z,171.37
2018-03-08T04:55:56.632Z,157.47
2018-03-08T04:58:24.130Z,164.37
2018-03-08T05:00:51.636Z,159.20
2018-03-08T05:03:19.102Z,154.00
2018-03-08T05:05:46.591Z,160.37
2018-03-08T05:08:14.065Z,157.10
2018-03-08T05:10:41.537Z,166.53
2018-03-08T05:13:09.020Z,162.27
2018-03-08T05:15:36.492Z,157.20
2018-03-08T05:18:03.952Z,159.37
2018-03-08T05:20:31.439Z,157.50
2018-03-08T05:22:58.935Z,152.60
2018-03-08T05:25:26.435Z,141.27
2018-03-08T05:27:53.918Z,161.43
2018-03-08T05:30:21.501Z,146.73
2018-03-08T05:32:49.007Z,181.77
2018-03-08T05:35:16.470Z,148.07
2018-03-08T05:37:43.941Z,142.27
2018-03-08T05:40:11.638Z,158.27
2018-03-08T05:42:39.096Z,155.50
2018-03-08T05:45:06.565Z,167.93
2018-03-08T05:47:34.054Z,158.73
2018-03-08T05:50:01.523Z,176.30
2018-03-08T05:52:29.044Z,161.60
2018-03-08T05:54:56.567Z,148.63
2018-03-08T05:57:24.035Z,143.00
2018-03-08T05:59:51.504Z,139.67
2018-03-08T06:02:19.005Z,141.50
2018-03-08T06:04:46.500Z,150.73
2018-03-08T06:07:14.003Z,140.07
2018-03-08T06:09:41.489Z,122.53
2018-03-08T06:12:09.012Z,108.93
2018-03-08T06:14:36.516Z,105.40
2018-03-08T06:17:03.980Z,118.93
2018-03-08T06:19:31.519Z,97.80
2018-03-08T06:21:59.024Z,107.90
2018-03-08T06:24:26.483Z,104.00
2018-03-08T06:26:53.987Z,114.47
2018-03-08T06:29:21.475Z,89.33
2018-03-08T06:31:48.926Z,87.27
2018-03-08T06:34:16.398Z,93.23
2018-03-08T06:36:43.907Z,90.10
2018-03-08T06:39:11.408Z,86.53
2018-03-08T06:41:38.866Z,85.43
2018-03-08T06:44:06.479Z,79.17
2018-03-08T06:46:33.995Z,86.10
2018-03-08T06:49:01.496Z,85.47
2018-03-08T06:51:29.020Z,87.57
2018-03-08T06:53:56.580Z,80.33
2018-03-08T06:56:24.062Z,76.60
2018-03-08T06:58:51.575Z,80.80
2018-03-08T07:01:19.087Z,82.63
2018-03-08T07:03:46.553Z,77.13
2018-03-08T07:06:14.031Z,87.97
2018-03-08T07:08:41.584Z,77.67
2018-03-08T07:11:09.051Z,71.37
2018-03-08T07:13:36.532Z,67.17
2018-03-08T07:16:04.090Z,63.70
2018-03-08T07:18:31.564Z,61.33
2018-03-08T07:20:59.019Z,61.83
2018-03-08T07:23:26.559Z,64.47
2018-03-08T07:25:54.021Z,57.87
2018-03-08T07:28:21.491Z,50.77
2018-03-08T07:30:49.250Z,53.00
2018-03-08T07:33:16.734Z,50.73
2018-03-08T07:35:44.215Z,50.03
2018-03-08T07:38:11.690Z,50.10
2018-03-08T07:40:39.168Z,46.13
2018-03-08T07:43:06.660Z,43.53
2018-03-08T07:45:34.131Z,38.30
2018-03-08T07:48:01.604Z,43.07
2018-03-08T07:50:29.078Z,40.67
2018-03-08T07:52:56.543Z,42.63
2018-03-08T07:55:24.113Z,39.97
2018-03-08T07:57:51.576Z,40.93
2018-03-08T08:00:19.056Z,39.77
2018-03-08T08:02:46.553Z,40.93
2018-03-08T08:05:25.984Z,39.07
2018-03-08T08:08:05.263Z,37.10
2018-03-08T08:10:32.811Z,40.90
2018-03-08T08:13:00.252Z,37.47
2018-03-08T08:15:27.750Z,43.67
2018-03-08T08:17:55.207Z,36.73
2018-03-08T08:20:22.734Z,38.07
2018-03-08T08:22:50.227Z,36.20
2018-03-08T08:25:17.778Z,30.63
2018-03-08T08:27:45.239Z,35.20
2018-03-08T08:30:12.774Z,34.33
2018-03-08T08:32:40.347Z,29.23
2018-03-08T08:35:07.840Z,38.77
2018-03-08T08:37:35.324Z,42.83
2018-03-08T08:40:02.809Z,31.30
2018-03-08T08:42:30.319Z,28.90
2018-03-08T08:44:57.827Z,36.00
2018-03-08T08:47:25.314Z,30.47
2018-03-08T08:49:52.838Z,34.70
2018-03-08T08:52:20.302Z,34.80
2018-03-08T08:54:47.824Z,29.93
2018-03-08T08:57:15.337Z,31.00
2018-03-08T08:59:42.807Z,25.93
2018-03-08T09:02:10.310Z,32.80
2018-03-08T09:04:37.778Z,29.27
2018-03-08T09:07:05.308Z,31.50
2018-03-08T09:09:32.841Z,27.93
2018-03-08T09:12:00.375Z,27.17
2018-03-08T09:14:27.852Z,29.27
2018-03-08T09:16:55.305Z,31.50
2018-03-08T09:19:22.755Z,30.23
2018-03-08T09:21:50.246Z,30.13
2018-03-08T09:24:17.719Z,28.10
2018-03-08T09:26:45.174Z,22.90
2018-03-08T09:29:12.673Z,25.67
2018-03-08T09:31:40.197Z,28.93
2018-03-08T09:34:07.781Z,27.00
2018-03-08T09:36:35.376Z,26.20
2018-03-08T09:39:02.913Z,23.67
2018-03-08T09:41:30.376Z,27.47
2018-03-08T09:43:57.878Z,21.23
2018-03-08T09:46:25.358Z,22.33
2018-03-08T09:48:52.814Z,23.57
2018-03-08T09:51:20.279Z,21.70
2018-03-08T09:53:47.760Z,26.83
2018-03-08T09:56:15.233Z,15.90
2018-03-08T09:58:42.738Z,19.60
2018-03-08T10:01:10.205Z,19.27
2018-03-08T10:03:37.685Z,20.43
2018-03-08T10:06:05.159Z,22.07
2018-03-08T10:08:32.626Z,21.33
2018-03-08T10:11:00.096Z,18.43
2018-03-08T10:13:27.615Z,23.50
2018-03-08T10:15:55.073Z,21.00
2018-03-08T10:18:22.586Z,20.80
2018-03-08T10:20:50.090Z,23.07
2018-03-08T10:23:17.542Z,31.43
2018-03-08T10:25:45.025Z,25.87
2018-03-08T10:28:12.558Z,29.13
2018-03-08T10:30:40.061Z,30.40
2018-03-08T10:33:07.623Z,30.40
2018-03-08T10:35:35.150Z,33.27
2018-03-08T10:38:02.628Z,34.70
2018-03-08T10:42:57.605Z,36.50
2018-03-08T10:45:25.089Z,34.43
2018-03-08T10:47:52.540Z,29.57
2018-03-08T10:50:20.032Z,29.50
2018-03-08T10:52:47.556Z,32.23
2018-03-08T10:55:15.060Z,33.40
2018-03-08T10:57:42.526Z,32.67
2018-03-08T11:00:09.996Z,36.50
2018-03-08T11:02:43.161Z,38.43
2018-03-08T11:05:10.640Z,36.77
2018-03-08T11:07:38.120Z,37.93
2018-03-08T11:10:05.597Z,41.03
2018-03-08T11:12:33.100Z,35.93
2018-03-08T11:15:00.631Z,35.63
2018-03-08T11:17:28.102Z,37.00
2018-03-08T11:19:55.638Z,36.67
2018-03-08T11:22:23.114Z,35.87
2018-03-08T11:24:50.589Z,35.33
2018-03-08T11:27:18.090Z,44.60
2018-03-08T11:29:45.639Z,37.53
2018-03-08T11:32:13.155Z,37.97
2018-03-08T11:34:40.631Z,40.40
2018-03-08T11:37:08.202Z,46.23
2018-03-08T11:39:35.692Z,37.30
2018-03-08T11:42:03.162Z,40.30
2018-03-08T11:44:30.640Z,39.80
2018-03-08T11:46:58.090Z,38.13
2018-03-08T11:49:25.643Z,37.63
2018-03-08T11:51:53.135Z,39.40
2018-03-08T11:54:20.596Z,33.30
2018-03-08T11:56:48.091Z,33.00
2018-03-08T11:59:15.656Z,38.53
2018-03-08T12:01:43.110Z,34.73
2018-03-08T12:04:10.588Z,35.07
2018-03-08T12:06:38.055Z,32.47
2018-03-08T12:09:05.515Z,30.73
2018-03-08T12:11:32.991Z,33.50
2018-03-08T12:14:00.493Z,29.63
2018-03-08T12:16:27.958Z,33.13
2018-03-08T12:18:55.410Z,30.17
2018-03-08T12:21:23.004Z,30.23
2018-03-08T12:23:50.463Z,26.40
2018-03-08T12:26:17.922Z,29.20
2018-03-08T12:28:45.406Z,33.97
2018-03-08T12:31:12.975Z,31.03
2018-03-08T12:33:40.443Z,31.67
2018-03-08T12:36:08.133Z,34.00
2018-03-08T12:38:35.614Z,32.87
2018-03-08T12:41:03.067Z,32.80
2018-03-08T12:43:30.583Z,43.30
2018-03-08T12:45:58.086Z,34.93
2018-03-08T12:48:25.543Z,26.87
2018-03-08T12:50:53.006Z,36.47
2018-03-08T12:53:20.512Z,30.00
2018-03-08T12:55:48.058Z,31.33
2018-03-08T12:58:15.633Z,29.50
2018-03-08T13:00:43.122Z,34.67
2018-03-08T13:03:10.597Z,33.73
2018-03-08T13:05:38.107Z,26.03
2018-03-08T13:08:05.587Z,30.43
2018-03-08T13:10:33.048Z,39.40
2018-03-08T13:13:00.522Z,30.40
2018-03-08T13:15:27.996Z,27.77
2018-03-08T13:17:55.578Z,30.20
2018-03-08T13:20:23.030Z,31.50
2018-03-08T13:22:50.488Z,32.63
2018-03-08T13:25:18.004Z,35.07
2018-03-08T13:27:45.500Z,24.63
2018-03-08T13:30:12.966Z,30.60
2018-03-08T13:32:40.544Z,26.70
2018-03-08T13:35:08.106Z,26.73
2018-03-08T13:37:35.612Z,26.67
2018-03-08T13:40:03.071Z,27.70
2018-03-08T13:42:30.536Z,23.43
2018-03-08T13:44:58.005Z,25.20
2018-03-08T13:47:25.467Z,26.57
2018-03-08T13:49:52.971Z,28.47
2018-03-08T13:52:20.438Z,24.40
2018-03-08T13:54:47.971Z,24.10
2018-03-08T13:57:15.482Z,20.70
2018-03-08T13:59:42.938Z,20.70
2018-03-08T14:02:10.391Z,22.03
2018-03-08T14:04:37.867Z,26.87
2018-03-08T14:07:05.330Z,20.53
2018-03-08T14:09:32.791Z,22.20
2018-03-08T14:12:00.267Z,22.60
2018-03-08T14:14:27.759Z,24.03
2018-03-08T14:16:55.225Z,23.83
2018-03-08T14:19:22.725Z,29.40
2018-03-08T14:21:50.195Z,30.23
2018-03-08T14:24:17.742Z,22.47
2018-03-08T14:26:45.211Z,21.50
2018-03-08T14:29:12.718Z,17.33
2018-03-08T14:31:40.183Z,19.87
2018-03-08T14:34:07.662Z,16.03
2018-03-08T14:36:35.168Z,20.03
2018-03-08T14:39:02.628Z,24.17
2018-03-08T14:41:30.089Z,20.93
2018-03-08T14:43:57.576Z,15.33
2018-03-08T14:46:25.062Z,14.57
2018-03-08T14:48:52.534Z,21.73
2018-03-08T14:51:20.040Z,12.80
2018-03-08T14:53:47.514Z,13.37
2018-03-08T14:56:15.001Z,18.97
2018-03-08T14:58:42.457Z,10.17
2018-03-08T15:01:09.921Z,12.77
2018-03-08T15:03:37.410Z,14.17
2018-03-08T15:06:04.863Z,17.20
2018-03-08T15:08:32.355Z,15.13
2018-03-08T15:10:59.816Z,18.80
2018-03-08T15:13:27.293Z,11.63
2018-03-08T15:15:54.800Z,15.47
2018-03-08T15:18:22.283Z,9.13
2018-03-08T15:20:49.740Z,12.83
2018-03-08T15:25:51.083Z,8.50
2018-03-08T15:28:18.565Z,6.63
2018-03-08T15:30:46.043Z,8.40
2018-03-08T15:33:13.502Z,10.00
2018-03-08T15:35:40.983Z,5.57
2018-03-08T15:38:08.522Z,6.20
2018-03-08T15:40:35.974Z,13.10
2018-03-08T15:43:03.449Z,19.17
2018-03-08T15:45:30.906Z,22.67
2018-03-08T15:47:58.415Z,31.53
2018-03-08T15:50:25.889Z,26.70
2018-03-08T15:52:53.351Z,16.00
2018-03-08T15:55:20.831Z,10.67
2018-03-08T15:57:48.371Z,16.40
2018-03-08T16:00:15.824Z,14.37
2018-03-08T16:02:43.405Z,13.47
2018-03-08T16:05:10.866Z,26.93
2018-03-08T16:07:49.970Z,22.37
2018-03-08T16:10:40.178Z,12.53
2018-03-08T16:13:07.773Z,14.40
2018-03-08T16:15:35.259Z,19.20
2018-03-08T16:18:02.711Z,12.30
2018-03-08T16:20:30.173Z,13.37
2018-03-08T16:22:57.650Z,16.33
2018-03-08T16:25:25.125Z,12.20
2018-03-08T16:27:52.580Z,13.83
2018-03-08T16:30:20.074Z,18.73
2018-03-08T16:32:47.526Z,9.80
2018-03-08T16:35:14.974Z,14.27
2018-03-08T16:37:42.455Z,14.10
2018-03-08T16:40:09.902Z,19.27
2018-03-08T16:42:37.350Z,12.07
2018-03-08T16:45:04.823Z,20.93
2018-03-08T16:47:32.283Z,13.77
2018-03-08T16:49:59.746Z,16.90
2018-03-08T16:52:27.231Z,27.03
2018-03-08T16:54:54.701Z,25.77
2018-03-08T16:57:22.212Z,22.20
2018-03-08T16:59:49.651Z,25.83
2018-03-08T17:02:17.142Z,54.57
2018-03-08T17:04:44.683Z,20.13
2018-03-08T17:07:12.201Z,24.10
2018-03-08T17:09:39.698Z,20.30
2018-03-08T17:12:07.150Z,19.73
2018-03-08T17:14:34.686Z,18.10
2018-03-08T17:17:02.158Z,14.03
2018-03-08T17:19:29.607Z,17.73
2018-03-08T17:21:57.198Z,16.87
2018-03-08T17:24:24.626Z,13.47
2018-03-08T17:26:52.090Z,12.03
2018-03-08T17:29:19.611Z,9.57
2018-03-08T17:31:47.062Z,14.37
2018-03-08T17:34:14.528Z,9.57
2018-03-08T17:36:42.446Z,11.23
2018-03-08T17:39:09.917Z,16.77
2018-03-08T17:41:37.438Z,21.40
2018-03-08T17:44:04.895Z,20.53
2018-03-08T17:46:32.351Z,16.47
2018-03-08T17:48:59.821Z,22.87
2018-03-08T17:51:27.307Z,16.90
2018-03-08T17:53:54.854Z,18.73
2018-03-08T17:56:22.309Z,21.30
2018-03-08T17:58:49.787Z,11.10
2018-03-08T18:01:17.276Z,17.53
2018-03-08T18:03:44.743Z,11.33
2018-03-08T18:06:12.204Z,18.80
2018-03-08T18:08:39.677Z,19.30
2018-03-08T18:11:07.151Z,14.77
2018-03-08T18:13:34.644Z,21.43
2018-03-08T18:16:02.098Z,14.70
2018-03-08T18:18:29.551Z,12.37
2018-03-08T18:20:57.044Z,18.87
2018-03-08T18:23:24.501Z,17.60
2018-03-08T18:25:51.999Z,20.17
2018-03-08T18:28:19.455Z,17.53
2018-03-08T18:30:46.921Z,19.40
2018-03-08T18:33:14.426Z,24.93
2018-03-08T18:35:43.064Z,17.67
2018-03-08T18:38:10.596Z,13.27
2018-03-08T18:40:38.292Z,19.00
2018-03-08T18:43:05.751Z,17.27
2018-03-08T18:45:33.205Z,16.37
2018-03-08T18:48:02.339Z,16.00
2018-03-08T18:50:29.911Z,12.63
2018-03-08T18:52:57.360Z,18.27
2018-03-08T18:55:24.827Z,12.70
2018-03-08T18:57:52.300Z,18.27
2018-03-08T19:00:19.848Z,18.00
2018-03-08T19:02:47.306Z,14.57
2018-03-08T19:05:14.762Z,13.87
2018-03-08T19:07:43.063Z,10.80
2018-03-08T19:10:10.532Z,15.53
2018-03-08T19:12:37.990Z,16.30
2018-03-08T19:15:05.462Z,16.43
2018-03-08T19:17:32.948Z,18.30
2018-03-08T19:20:00.432Z,19.67
2018-03-08T19:22:28.059Z,20.43
2018-03-08T19:24:55.541Z,16.23
2018-03-08T19:27:23.022Z,15.03
2018-03-08T19:29:50.486Z,18.63
2018-03-08T19:32:17.987Z,14.47
2018-03-08T19:34:45.460Z,10.40
2018-03-08T19:37:13.079Z,13.20
2018-03-08T19:39:40.602Z,20.87
2018-03-08T19:42:08.095Z,10.80
2018-03-08T19:44:35.570Z,12.90
2018-03-08T19:47:03.057Z,13.47
2018-03-08T19:49:30.591Z,17.30
2018-03-08T19:51:58.066Z,15.57
2018-03-08T19:54:25.528Z,14.90
2018-03-08T19:56:53.028Z,14.50
2018-03-08T19:59:20.490Z,15.80
2018-03-08T20:01:47.956Z,9.83
2018-03-08T20:04:15.447Z,17.80
2018-03-08T20:06:42.917Z,15.17
2018-03-08T20:09:10.409Z,24.10
2018-03-08T20:11:37.894Z,12.83
2018-03-08T20:14:05.402Z,16.13
2018-03-08T20:16:32.871Z,14.43
2018-03-08T20:19:00.365Z,10.80
2018-03-08T20:21:27.855Z,8.73
2018-03-08T20:23:55.326Z,18.30
2018-03-08T20:26:22.802Z,10.77
2018-03-08T20:28:50.290Z,10.63
2018-03-08T20:31:17.751Z,15.67
2018-03-08T20:33:45.258Z,10.03
2018-03-08T20:36:12.763Z,16.20
2018-03-08T20:38:40.322Z,14.47
2018-03-08T20:41:07.852Z,13.43
2018-03-08T20:43:35.608Z,28.73
2018-03-08T20:46:03.074Z,11.77
2018-03-08T20:48:30.662Z,11.63
2018-03-08T20:50:58.167Z,20.77
2018-03-08T20:53:25.663Z,27.60
2018-03-08T20:55:53.134Z,12.60
2018-03-08T20:58:20.627Z,15.40
2018-03-08T21:00:48.109Z,8.50
2018-03-08T21:03:15.576Z,14.70
2018-03-08T21:05:43.051Z,11.63
2018-03-08T21:08:10.494Z,10.47
2018-03-08T21:10:40.807Z,18.47
2018-03-08T21:13:08.304Z,18.97
2018-03-08T21:15:35.828Z,13.57
2018-03-08T21:18:03.386Z,29.10
2018-03-08T21:20:30.889Z,22.98
2018-03-08T21:22:58.432Z,22.33
2018-03-08T21:25:25.908Z,16.60
2018-03-08T21:27:53.436Z,39.47
2018-03-08T21:30:20.936Z,22.17
2018-03-08T21:32:48.418Z,23.40
2018-03-08T21:35:15.877Z,11.47
2018-03-08T21:37:43.457Z,13.77
2018-03-08T21:40:10.914Z,21.97
2018-03-08T21:42:37.667Z,12.00
2018-03-08T21:45:05.180Z,28.00
2018-03-08T21:47:32.662Z,28.27
2018-03-08T21:50:00.132Z,28.50
2018-03-08T21:52:27.598Z,14.00
2018-03-08T21:54:55.052Z,10.97
2018-03-08T21:57:22.531Z,19.13
2018-03-08T21:59:50.025Z,27.43
2018-03-08T22:02:17.731Z,10.47
2018-03-08T22:04:45.179Z,15.63
2018-03-08T22:07:12.666Z,18.30
2018-03-08T22:09:40.232Z,14.93
2018-03-08T22:12:07.708Z,20.13
2018-03-08T22:14:35.176Z,16.27
2018-03-08T22:17:02.633Z,7.77
2018-03-08T22:19:30.110Z,13.10
2018-03-08T22:21:57.587Z,9.03
2018-03-08T22:24:25.051Z,12.27
2018-03-08T22:26:52.656Z,15.03
2018-03-08T22:29:20.132Z,14.10
2018-03-08T22:31:47.591Z,23.73
2018-03-08T22:34:15.085Z,24.47
2018-03-08T22:36:42.589Z,22.10
2018-03-08T22:39:10.072Z,23.80
2018-03-08T22:41:37.726Z,11.13
2018-03-08T22:44:05.184Z,23.73
2018-03-08T22:46:32.686Z,33.77
2018-03-08T22:49:00.152Z,37.00
2018-03-08T22:51:27.651Z,21.60
2018-03-08T22:53:55.118Z,28.30
2018-03-08T22:56:22.639Z,12.30
2018-03-08T22:58:50.101Z,19.23
2018-03-08T23:04:33.450Z,18.50
2018-03-08T23:07:00.919Z,14.33
2018-03-08T23:09:28.463Z,9.93
2018-03-08T23:11:56.168Z,9.43
2018-03-08T23:14:23.678Z,7.00
2018-03-08T23:16:51.122Z,4.33
2018-03-08T23:19:18.595Z,3.70
2018-03-08T23:21:46.054Z,10.03
2018-03-08T23:24:13.529Z,14.50
2018-03-08T23:26:41.007Z,7.60
2018-03-08T23:29:08.461Z,6.10
2018-03-08T23:31:35.903Z,3.90
2018-03-08T23:34:03.500Z,6.20
2018-03-08T23:36:30.958Z,17.13
2018-03-08T23:38:58.412Z,10.60
2018-03-08T23:41:25.970Z,9.00
2018-03-08T23:43:53.429Z,8.87
2018-03-08T23:46:20.918Z,12.43
2018-03-08T23:48:48.404Z,4.20
2018-03-08T23:51:15.850Z,6.63
2018-03-08T23:53:43.356Z,4.87
2018-03-08T23:56:10.807Z,5.03
2018-03-08T23:58:38.260Z,10.47
